Terminal Aerodrome Forecast
Issued by NWS

Home | Current Version | Previous Version | Text Only | Print | Product List | Glossary On
Versions: 1 2 3 4 5 6 7 8 9 10 11 12
809
FTUS44 KJAN 201120
TAFHKS
TAF
KHKS 201120Z 2012/2112 00000KT P6SM SKC
     FM201330 12005KT P6SM FEW250
     FM202100 12007KT P6SM BKN100
     FM210000 12004KT P6SM BKN250
     FM210600 13004KT P6SM OVC050=

USA.gov is the U.S. government's official web portal to all federal, state and local government web resources and services.